Time;durP1;ratioP1;P1;durP2;ratioP2;P2;SDS_P1;SDS_P2;PMS_P1;PMS_P2;Temp;Humidity;BMP_temperature;BMP_pressure;BME280_temperature;BME280_humidity;BME280_pressure;Samples;Min_cycle;Max_cycle;Signal;HPM_P1;HPM_P2
2023/04/04 00:02:21;;;;;;;4.27;3.87;;;6.60;39.40;;;;;;5092988;28;20424;-88
2023/04/04 00:04:48;;;;;;;5.33;4.00;;;6.60;39.00;;;;;;5055032;28;20565;-89
2023/04/04 00:07:15;;;;;;;6.23;2.93;;;6.50;39.20;;;;;;5056885;28;20454;-88
2023/04/04 00:09:42;;;;;;;9.13;3.73;;;6.40;39.30;;;;;;5058329;28;20830;-88
2023/04/04 00:12:11;;;;;;;2.83;2.50;;;6.40;39.50;;;;;;5065655;28;20458;-85
2023/04/04 00:14:38;;;;;;;4.27;3.20;;;6.50;39.70;;;;;;5093235;28;20517;-88
2023/04/04 00:17:05;;;;;;;3.00;2.70;;;6.50;40.20;;;;;;5059566;28;20451;-85
2023/04/04 00:19:32;;;;;;;5.23;2.77;;;6.60;41.30;;;;;;5065409;28;20732;-89
2023/04/04 00:21:59;;;;;;;8.27;3.10;;;6.70;41.10;;;;;;5086968;28;20812;-88
2023/04/04 00:24:26;;;;;;;4.13;2.50;;;6.70;40.60;;;;;;5052563;28;20531;-87
2023/04/04 00:26:53;;;;;;;4.27;3.13;;;6.70;40.80;;;;;;5066502;28;20518;-86
2023/04/04 00:29:22;;;;;;;3.03;2.70;;;6.80;40.90;;;;;;5067327;28;20458;-88
2023/04/04 00:31:49;;;;;;;2.60;2.40;;;6.70;40.70;;;;;;5051641;27;20442;-88
2023/04/04 00:34:16;;;;;;;3.77;3.00;;;6.70;40.60;;;;;;5108362;27;20481;-88
2023/04/04 00:36:43;;;;;;;7.60;3.20;;;6.80;40.70;;;;;;5069622;28;20442;-88
2023/04/04 00:39:10;;;;;;;3.10;2.80;;;6.70;40.60;;;;;;5076655;28;20475;-87
2023/04/04 00:41:37;;;;;;;6.80;2.80;;;6.70;40.60;;;;;;5052778;28;20504;-87
2023/04/04 00:44:04;;;;;;;3.47;2.63;;;6.60;40.50;;;;;;5050211;28;20477;-88
2023/04/04 00:46:33;;;;;;;6.47;3.10;;;6.60;40.40;;;;;;5100591;28;20522;-87
2023/04/04 00:49:00;;;;;;;3.33;2.43;;;6.50;40.30;;;;;;5096344;28;20999;-88
2023/04/04 00:51:27;;;;;;;3.30;2.47;;;6.50;40.50;;;;;;5103880;27;20788;-89
2023/04/04 00:53:54;;;;;;;3.53;2.50;;;6.50;40.90;;;;;;5062842;28;20444;-89
2023/04/04 00:56:22;;;;;;;3.30;3.00;;;6.50;41.00;;;;;;5090280;28;20519;-88
2023/04/04 00:58:49;;;;;;;3.97;2.20;;;6.60;41.10;;;;;;5084651;27;20483;-87
2023/04/04 01:01:17;;;;;;;3.40;2.30;;;6.50;40.80;;;;;;5096330;28;20440;-88
2023/04/04 01:03:45;;;;;;;2.90;2.70;;;6.50;41.00;;;;;;5079003;28;20534;-89
2023/04/04 01:06:15;;;;;;;2.70;2.50;;;6.60;40.90;;;;;;5073547;28;20466;-89
2023/04/04 01:08:43;;;;;;;2.63;2.43;;;6.60;40.80;;;;;;5090424;28;20463;-88
2023/04/04 01:11:11;;;;;;;3.13;2.50;;;6.60;41.00;;;;;;5053882;28;20446;-88
2023/04/04 01:13:38;;;;;;;2.80;2.60;;;6.60;41.10;;;;;;5073309;27;20451;-88
2023/04/04 01:16:06;;;;;;;3.87;2.93;;;6.50;41.20;;;;;;5086840;28;20447;-86
2023/04/04 01:18:36;;;;;;;2.57;2.37;;;6.40;40.30;;;;;;5072880;27;20480;-88
2023/04/04 01:21:09;;;;;;;2.80;2.60;;;6.30;40.20;;;;;;5055595;28;20447;-89
2023/04/04 01:23:45;;;;;;;4.33;2.40;;;6.10;40.30;;;;;;5079669;27;20604;-87
2023/04/04 01:26:14;;;;;;;3.33;2.73;;;6.00;40.40;;;;;;5081855;28;21010;-90
2023/04/04 01:28:41;;;;;;;5.20;2.43;;;6.00;40.90;;;;;;5100565;28;20474;-86
2023/04/04 01:31:14;;;;;;;4.97;2.90;;;6.00;41.00;;;;;;5053470;28;20454;-89
2023/04/04 01:33:45;;;;;;;4.20;2.20;;;6.00;41.50;;;;;;5061233;27;20475;-88
2023/04/04 01:36:20;;;;;;;4.20;2.63;;;5.90;41.50;;;;;;5057259;28;20440;-86
2023/04/04 01:38:58;;;;;;;3.50;2.60;;;5.80;42.10;;;;;;5086143;28;20550;-90
2023/04/04 01:41:32;;;;;;;2.70;2.50;;;5.80;42.40;;;;;;5058783;28;20534;-89
2023/04/04 01:44:00;;;;;;;4.40;2.70;;;5.80;42.20;;;;;;5070820;28;20435;-87
2023/04/04 01:46:29;;;;;;;3.43;2.67;;;5.90;42.50;;;;;;5095592;27;20467;-86
2023/04/04 01:48:55;;;;;;;2.40;2.10;;;6.00;42.20;;;;;;5081045;28;20581;-87
2023/04/04 01:51:27;;;;;;;3.57;2.30;;;6.10;42.10;;;;;;5085864;28;20443;-88
2023/04/04 01:53:55;;;;;;;4.10;2.17;;;6.10;41.50;;;;;;5097608;28;20550;-88
2023/04/04 01:56:23;;;;;;;4.17;2.80;;;6.10;41.40;;;;;;5081008;28;21348;-90
2023/04/04 01:58:52;;;;;;;3.93;2.40;;;6.20;41.40;;;;;;5062234;28;20460;-89
2023/04/04 02:01:20;;;;;;;3.80;2.47;;;6.20;41.20;;;;;;5059267;28;20470;-88
2023/04/04 02:03:47;;;;;;;2.40;2.20;;;6.10;41.40;;;;;;5082984;28;20530;-90
2023/04/04 02:06:14;;;;;;;8.60;2.50;;;6.10;41.40;;;;;;5094241;28;21366;-89
2023/04/04 02:08:42;;;;;;;5.33;2.63;;;6.10;41.60;;;;;;5050682;28;20470;-90
2023/04/04 02:11:11;;;;;;;4.57;3.23;;;6.10;41.50;;;;;;5056629;28;20479;-88
2023/04/04 02:13:40;;;;;;;6.73;3.50;;;6.10;41.60;;;;;;5043100;28;20956;-87
2023/04/04 02:16:09;;;;;;;9.27;4.27;;;6.10;41.90;;;;;;5054128;28;20467;-89
2023/04/04 02:18:36;;;;;;;6.20;4.33;;;6.10;42.10;;;;;;5079165;28;20526;-91
2023/04/04 02:21:03;;;;;;;5.90;4.07;;;6.10;42.40;;;;;;5090015;28;20476;-91
2023/04/04 02:23:30;;;;;;;4.53;4.13;;;6.10;42.20;;;;;;5085116;28;21054;-87
2023/04/04 02:25:57;;;;;;;7.07;3.83;;;6.00;41.90;;;;;;5099312;28;20463;-89
2023/04/04 02:28:24;;;;;;;6.73;3.80;;;5.90;42.40;;;;;;5051575;27;20554;-90
2023/04/04 02:30:52;;;;;;;5.70;3.10;;;5.90;41.90;;;;;;5082241;27;20451;-91
2023/04/04 02:33:21;;;;;;;9.37;4.37;;;5.70;42.40;;;;;;5056523;28;20442;-87
2023/04/04 02:35:49;;;;;;;5.87;5.43;;;5.60;42.60;;;;;;5086610;27;20965;-90
2023/04/04 02:38:16;;;;;;;4.67;3.10;;;5.60;42.60;;;;;;5055330;28;20499;-89
2023/04/04 02:40:46;;;;;;;2.70;2.50;;;5.50;42.30;;;;;;5094925;27;21031;-91
2023/04/04 02:43:13;;;;;;;4.57;2.60;;;5.50;42.10;;;;;;5095379;28;20525;-87
2023/04/04 02:45:41;;;;;;;2.70;2.50;;;5.40;42.20;;;;;;5080361;28;20466;-88
2023/04/04 02:48:29;;;;;;;6.00;4.27;;;5.50;42.80;;;;;;5093691;27;20546;-89
2023/04/04 02:51:02;;;;;;;3.93;2.80;;;5.50;42.90;;;;;;5078658;28;20988;-88
2023/04/04 02:53:30;;;;;;;4.40;2.90;;;5.40;42.70;;;;;;5059569;28;20444;-90
2023/04/04 02:56:03;;;;;;;3.93;2.30;;;5.40;43.70;;;;;;5085209;28;20807;-90
2023/04/04 02:58:31;;;;;;;4.83;2.80;;;5.50;43.40;;;;;;5055729;28;20466;-93
2023/04/04 03:00:58;;;;;;;3.33;2.43;;;5.50;42.80;;;;;;5052707;27;20530;-90
2023/04/04 03:03:31;;;;;;;3.17;2.00;;;5.60;42.90;;;;;;5052264;28;20445;-90
2023/04/04 03:05:59;;;;;;;2.33;1.87;;;5.60;42.50;;;;;;5067984;28;20491;-90
2023/04/04 03:08:27;;;;;;;2.97;2.60;;;5.60;42.10;;;;;;5053022;28;20475;-88
2023/04/04 03:10:57;;;;;;;5.63;3.40;;;5.50;42.70;;;;;;5070630;28;20455;-90
2023/04/04 03:13:24;;;;;;;4.63;2.70;;;5.30;42.40;;;;;;5069207;28;20447;-88
2023/04/04 03:15:57;;;;;;;5.13;3.77;;;5.30;42.30;;;;;;5087222;28;20443;-89
2023/04/04 03:18:24;;;;;;;3.73;2.60;;;5.20;42.30;;;;;;5057415;28;20459;-90
2023/04/04 03:20:53;;;;;;;2.50;2.07;;;5.10;42.90;;;;;;5081657;28;20505;-90
2023/04/04 03:23:20;;;;;;;3.10;2.90;;;5.10;43.30;;;;;;5082666;28;20947;-89
2023/04/04 03:25:47;;;;;;;4.67;3.20;;;5.10;43.10;;;;;;5080525;28;20463;-88
2023/04/04 03:28:14;;;;;;;12.80;7.20;;;5.10;43.60;;;;;;5102667;28;20443;-88
2023/04/04 03:30:42;;;;;;;17.77;8.03;;;5.20;43.50;;;;;;5064478;28;21034;-90
2023/04/04 03:33:09;;;;;;;20.53;9.83;;;5.30;43.20;;;;;;5074718;28;20444;-88
2023/04/04 03:35:38;;;;;;;17.77;8.20;;;5.40;42.90;;;;;;5044157;28;20448;-88
2023/04/04 03:38:07;;;;;;;40.10;14.80;;;5.40;43.00;;;;;;5073441;28;20451;-89
2023/04/04 03:40:34;;;;;;;48.80;19.63;;;5.40;42.60;;;;;;5069089;28;20467;-91
2023/04/04 03:43:07;;;;;;;37.00;15.00;;;5.40;42.50;;;;;;5081064;28;20464;-89
2023/04/04 03:45:34;;;;;;;31.73;14.87;;;5.40;42.50;;;;;;5067588;28;20458;-89
2023/04/04 03:48:01;;;;;;;35.10;16.47;;;5.40;42.40;;;;;;5093127;28;20455;-89
2023/04/04 03:50:30;;;;;;;28.73;14.23;;;5.40;42.30;;;;;;5081427;28;20532;-89
2023/04/04 03:52:58;;;;;;;23.70;11.83;;;5.40;42.40;;;;;;5048104;28;20440;-89
2023/04/04 03:55:27;;;;;;;17.10;9.50;;;5.30;42.40;;;;;;5088532;28;21168;-88
2023/04/04 03:58:00;;;;;;;21.67;11.00;;;5.30;42.40;;;;;;5071313;28;21258;-87
2023/04/04 04:00:30;;;;;;;21.70;8.63;;;5.30;42.50;;;;;;5050502;28;20454;-89
2023/04/04 04:02:58;;;;;;;8.00;5.77;;;5.30;42.50;;;;;;5080547;28;20528;-89
2023/04/04 04:05:26;;;;;;;11.00;5.40;;;5.20;42.20;;;;;;5054671;28;20450;-89
2023/04/04 04:07:53;;;;;;;6.70;4.40;;;5.20;42.60;;;;;;5090255;28;20561;-90
2023/04/04 04:10:21;;;;;;;6.63;4.43;;;5.20;42.90;;;;;;5064616;28;20482;-89
2023/04/04 04:12:51;;;;;;;6.77;3.97;;;5.20;43.00;;;;;;5079614;28;21057;-89
2023/04/04 04:15:19;;;;;;;8.83;4.80;;;5.20;42.90;;;;;;5045554;28;20454;-89
2023/04/04 04:17:48;;;;;;;6.13;3.67;;;5.00;42.90;;;;;;5051503;28;20454;-90
2023/04/04 04:20:15;;;;;;;14.03;8.83;;;5.00;43.20;;;;;;5075233;28;20474;-88
2023/04/04 04:22:47;;;;;;;9.03;5.43;;;4.90;43.40;;;;;;5082909;28;20857;-88
2023/04/04 04:25:15;;;;;;;15.53;6.83;;;4.30;44.60;;;;;;5054085;28;20546;-91
2023/04/04 04:27:47;;;;;;;10.40;5.53;;;4.20;45.20;;;;;;5049074;28;20462;-88
2023/04/04 04:30:16;;;;;;;7.07;4.40;;;4.00;45.40;;;;;;5050875;28;20479;-89
2023/04/04 04:32:45;;;;;;;9.10;3.70;;;3.90;45.80;;;;;;5081250;28;20671;-89
2023/04/04 04:35:13;;;;;;;6.43;2.63;;;3.80;45.80;;;;;;5054553;28;20502;-89
2023/04/04 04:37:41;;;;;;;4.33;3.47;;;3.40;46.70;;;;;;5075719;28;20475;-89
2023/04/04 04:40:10;;;;;;;13.87;5.47;;;3.30;47.50;;;;;;5076790;28;20473;-88
2023/04/04 04:42:45;;;;;;;13.13;5.40;;;3.20;47.30;;;;;;5068356;28;20455;-88
2023/04/04 04:45:16;;;;;;;11.77;6.57;;;3.60;47.30;;;;;;5088709;28;20475;-90
2023/04/04 04:47:47;;;;;;;6.90;3.77;;;3.80;46.40;;;;;;5047497;28;20456;-88
2023/04/04 04:50:18;;;;;;;10.47;4.20;;;3.80;46.20;;;;;;5096030;28;20471;-89
2023/04/04 04:52:50;;;;;;;3.50;3.20;;;3.90;45.70;;;;;;5077204;28;20458;-89
2023/04/04 04:55:17;;;;;;;2.70;2.50;;;4.00;45.70;;;;;;5057653;28;20471;-89
2023/04/04 04:57:50;;;;;;;4.20;2.37;;;4.00;45.50;;;;;;5044327;28;21328;-89
2023/04/04 05:00:24;;;;;;;4.47;3.03;;;4.10;45.70;;;;;;5057013;28;21026;-90
2023/04/04 05:02:54;;;;;;;3.77;3.00;;;4.30;45.80;;;;;;5053885;28;21016;-88
2023/04/04 05:05:28;;;;;;;3.40;2.83;;;4.30;46.10;;;;;;5051095;28;20450;-90
2023/04/04 05:08:02;;;;;;;4.20;3.23;;;4.50;45.40;;;;;;5091971;28;20493;-89
2023/04/04 05:10:29;;;;;;;5.50;3.20;;;4.60;45.00;;;;;;5087397;28;20447;-88
2023/04/04 05:12:56;;;;;;;3.40;3.10;;;4.60;44.80;;;;;;5071151;28;20466;-89
2023/04/04 05:15:29;;;;;;;4.40;3.10;;;4.70;44.50;;;;;;5105891;28;20533;-87
2023/04/04 05:17:57;;;;;;;5.07;2.80;;;4.60;44.30;;;;;;5084552;27;20443;-89
2023/04/04 05:20:24;;;;;;;4.83;2.90;;;4.60;44.50;;;;;;5060051;28;20450;-90
2023/04/04 05:22:53;;;;;;;3.33;2.77;;;4.70;44.60;;;;;;5061499;28;20452;-89
2023/04/04 05:25:30;;;;;;;4.30;2.37;;;4.60;44.50;;;;;;5055198;28;20487;-90
2023/04/04 05:27:57;;;;;;;5.00;2.80;;;4.70;44.50;;;;;;5056051;28;20463;-88
2023/04/04 05:30:24;;;;;;;4.97;3.20;;;4.70;44.50;;;;;;5085502;28;20469;-89
2023/04/04 05:33:04;;;;;;;5.23;2.67;;;4.60;44.50;;;;;;5065671;28;20450;-88
2023/04/04 05:35:31;;;;;;;4.40;2.53;;;4.70;44.50;;;;;;5053095;28;20444;-87
2023/04/04 05:37:59;;;;;;;8.80;2.90;;;4.70;44.50;;;;;;5056345;27;20437;-88
2023/04/04 05:40:26;;;;;;;3.00;2.70;;;4.80;44.70;;;;;;5062928;28;20455;-88
2023/04/04 05:43:05;;;;;;;6.60;3.30;;;4.80;44.80;;;;;;5054866;28;20445;-89
2023/04/04 05:45:39;;;;;;;6.27;4.03;;;4.80;44.70;;;;;;5066722;28;20443;-88
2023/04/04 05:48:08;;;;;;;10.40;6.53;;;4.80;44.80;;;;;;5066134;28;20462;-89
2023/04/04 05:50:44;;;;;;;7.70;5.50;;;4.70;45.10;;;;;;5059283;28;20446;-89
2023/04/04 05:53:12;;;;;;;8.87;4.60;;;4.70;45.30;;;;;;5055289;28;20470;-89
2023/04/04 05:55:39;;;;;;;11.07;6.17;;;4.80;45.30;;;;;;5080013;28;20454;-89
2023/04/04 05:58:06;;;;;;;6.87;4.70;;;4.90;45.40;;;;;;5118939;27;20444;-89
2023/04/04 06:00:44;;;;;;;6.30;4.87;;;4.90;45.20;;;;;;5080245;28;20455;-88
2023/04/04 06:03:13;;;;;;;4.93;4.30;;;4.90;45.30;;;;;;5061305;28;20455;-89
2023/04/04 06:05:43;;;;;;;5.70;4.17;;;4.90;45.00;;;;;;5091644;28;20538;-89
2023/04/04 06:08:10;;;;;;;6.50;3.70;;;5.00;44.80;;;;;;5098291;28;21053;-88
2023/04/04 06:10:37;;;;;;;7.13;3.93;;;5.00;44.80;;;;;;5051772;28;20443;-89
2023/04/04 06:13:04;;;;;;;6.97;4.87;;;5.00;44.70;;;;;;5056593;27;21188;-90
2023/04/04 06:15:32;;;;;;;12.87;5.50;;;5.10;44.70;;;;;;5055239;28;20505;-89
2023/04/04 06:17:59;;;;;;;5.27;4.77;;;5.10;44.80;;;;;;5074427;27;20961;-88
2023/04/04 06:20:30;;;;;;;4.87;4.00;;;5.00;44.80;;;;;;5085023;28;20443;-89
2023/04/04 06:22:57;;;;;;;4.63;4.23;;;5.10;44.90;;;;;;5070845;28;20496;-89
2023/04/04 06:25:26;;;;;;;6.10;4.10;;;5.10;45.00;;;;;;5048193;28;20479;-89
2023/04/04 06:27:58;;;;;;;6.97;4.60;;;5.10;44.90;;;;;;5055946;27;20468;-89
2023/04/04 06:30:25;;;;;;;5.57;3.83;;;5.10;45.00;;;;;;5077976;28;20967;-88
2023/04/04 06:32:53;;;;;;;4.90;3.90;;;5.10;44.90;;;;;;5089450;28;20546;-89
2023/04/04 06:35:23;;;;;;;5.80;4.00;;;5.10;44.80;;;;;;5061103;28;20798;-89
2023/04/04 06:38:03;;;;;;;5.73;3.97;;;5.10;44.90;;;;;;5082943;28;21090;-89
2023/04/04 06:40:30;;;;;;;14.20;5.20;;;5.10;45.00;;;;;;5081222;28;20447;-88
2023/04/04 06:42:58;;;;;;;5.87;5.20;;;5.20;45.10;;;;;;5055413;28;20443;-90
2023/04/04 06:45:32;;;;;;;11.40;6.97;;;5.20;45.00;;;;;;5056145;28;20446;-89
2023/04/04 06:48:00;;;;;;;6.60;4.10;;;5.20;45.00;;;;;;5113912;27;20459;-88
2023/04/04 06:50:31;;;;;;;5.90;3.97;;;5.20;45.30;;;;;;5050881;28;20540;-90
2023/04/04 06:53:00;;;;;;;6.10;4.30;;;5.30;45.30;;;;;;5087995;27;20444;-90
2023/04/04 06:55:28;;;;;;;3.80;3.37;;;5.30;45.10;;;;;;5089242;28;20519;-89
2023/04/04 06:57:55;;;;;;;3.47;3.17;;;5.30;45.30;;;;;;5082590;27;20470;-90
2023/04/04 07:00:23;;;;;;;5.37;4.90;;;5.30;45.30;;;;;;5057326;28;20553;-89
2023/04/04 07:02:50;;;;;;;4.93;4.20;;;5.30;45.10;;;;;;5060643;28;20523;-88
2023/04/04 07:05:17;;;;;;;7.07;3.60;;;5.30;45.00;;;;;;5073761;28;20974;-89
2023/04/04 07:07:45;;;;;;;5.67;3.53;;;5.30;44.80;;;;;;5050995;28;20460;-89
2023/04/04 07:10:12;;;;;;;6.27;4.67;;;5.30;45.10;;;;;;5084575;28;20996;-88
2023/04/04 07:12:40;;;;;;;7.90;4.90;;;5.30;45.10;;;;;;5072603;28;20505;-89
2023/04/04 07:15:08;;;;;;;5.20;4.37;;;5.30;45.20;;;;;;5073065;28;20474;-88
2023/04/04 07:17:37;;;;;;;5.80;4.03;;;5.30;45.50;;;;;;5074319;28;20455;-90
2023/04/04 07:20:05;;;;;;;7.10;3.57;;;5.30;45.40;;;;;;5071387;28;20551;-88
2023/04/04 07:22:32;;;;;;;6.20;4.03;;;5.30;45.30;;;;;;5086544;28;20453;-88
2023/04/04 07:24:59;;;;;;;3.50;3.20;;;5.20;45.20;;;;;;5060012;27;20459;-89
2023/04/04 07:27:26;;;;;;;5.23;3.33;;;5.10;44.00;;;;;;5090434;28;20469;-90
2023/04/04 07:29:55;;;;;;;4.57;3.90;;;5.10;44.20;;;;;;5067061;28;20521;-88
2023/04/04 07:32:22;;;;;;;3.23;2.80;;;5.30;44.00;;;;;;5071279;28;20443;-89
2023/04/04 07:34:50;;;;;;;4.33;3.27;;;5.30;42.50;;;;;;5089398;28;20498;-89
2023/04/04 07:37:17;;;;;;;3.43;2.23;;;5.20;42.20;;;;;;5076099;28;20718;-89
2023/04/04 07:39:44;;;;;;;4.60;2.57;;;5.30;41.80;;;;;;5056745;28;20968;-89
2023/04/04 07:42:11;;;;;;;2.83;2.30;;;5.30;40.70;;;;;;5057466;28;20504;-89
2023/04/04 07:44:39;;;;;;;4.47;2.50;;;5.40;41.20;;;;;;5068615;28;20440;-90
2023/04/04 07:47:09;;;;;;;8.93;2.43;;;5.50;41.40;;;;;;5087867;28;20494;-89
2023/04/04 07:49:36;;;;;;;2.67;1.70;;;5.40;40.30;;;;;;5097137;28;20474;-90
2023/04/04 07:52:04;;;;;;;4.07;2.43;;;5.40;40.20;;;;;;5082494;28;21809;-90
2023/04/04 07:54:31;;;;;;;4.90;1.67;;;5.60;40.30;;;;;;5080531;28;20455;-88
2023/04/04 07:56:58;;;;;;;5.10;2.30;;;5.80;39.60;;;;;;5057734;28;20952;-89
2023/04/04 07:59:25;;;;;;;2.47;1.70;;;5.90;39.40;;;;;;5058723;28;20493;-90
2023/04/04 08:01:52;;;;;;;3.53;3.00;;;6.10;39.10;;;;;;5082845;28;20448;-89
2023/04/04 08:04:21;;;;;;;1.70;1.60;;;6.00;38.70;;;;;;5053347;28;20476;-87
2023/04/04 08:06:48;;;;;;;4.70;1.60;;;5.90;39.60;;;;;;5084936;28;20443;-90
2023/04/04 08:09:15;;;;;;;2.63;2.33;;;6.10;39.50;;;;;;5085214;28;21070;-86
2023/04/04 08:11:42;;;;;;;5.13;2.27;;;6.30;38.50;;;;;;5058492;28;20486;-92
2023/04/04 08:14:10;;;;;;;4.30;2.57;;;6.50;38.70;;;;;;5086707;28;20475;-86
2023/04/04 08:16:37;;;;;;;3.30;1.70;;;6.70;38.40;;;;;;5086759;28;20455;-88
2023/04/04 08:19:05;;;;;;;3.07;2.40;;;6.80;36.50;;;;;;5059362;28;20462;-88
2023/04/04 08:21:34;;;;;;;2.00;1.80;;;6.70;37.00;;;;;;5091560;28;20451;-90
2023/04/04 08:24:01;;;;;;;3.00;2.60;;;6.90;36.40;;;;;;5081491;28;20836;-89
2023/04/04 08:26:28;;;;;;;4.13;2.10;;;7.00;35.60;;;;;;5073072;28;20439;-87
2023/04/04 08:28:55;;;;;;;2.33;2.13;;;7.10;35.80;;;;;;5082245;28;20544;-86
2023/04/04 08:31:22;;;;;;;1.30;1.13;;;7.10;35.90;;;;;;5099556;28;20513;-87
2023/04/04 08:33:53;;;;;;;1.90;1.80;;;7.10;35.00;;;;;;5078211;28;20985;-88
2023/04/04 08:36:21;;;;;;;1.73;1.63;;;7.10;35.40;;;;;;5063236;28;20444;-88
2023/04/04 08:38:49;;;;;;;3.73;2.70;;;7.20;34.60;;;;;;5086843;28;20505;-89
2023/04/04 08:41:16;;;;;;;3.30;3.00;;;7.30;34.20;;;;;;5105285;27;21162;-89
2023/04/04 08:43:45;;;;;;;3.80;1.80;;;7.50;33.40;;;;;;5102700;28;20458;-89
2023/04/04 08:46:15;;;;;;;2.03;1.80;;;7.60;34.40;;;;;;5093095;28;20444;-88
2023/04/04 08:48:44;;;;;;;3.63;2.20;;;7.80;33.60;;;;;;5093009;28;20503;-88
2023/04/04 08:51:13;;;;;;;2.13;1.90;;;7.50;33.00;;;;;;5073042;27;20427;-88
2023/04/04 08:53:40;;;;;;;2.90;1.93;;;7.60;33.20;;;;;;5059442;28;20844;-87
2023/04/04 08:56:09;;;;;;;2.50;1.90;;;7.80;33.40;;;;;;5086574;28;20452;-88
2023/04/04 08:58:37;;;;;;;2.03;1.80;;;7.90;33.30;;;;;;5092067;28;20834;-88
2023/04/04 09:01:06;;;;;;;2.37;2.00;;;8.20;32.70;;;;;;5104110;28;20857;-88
2023/04/04 09:03:35;;;;;;;6.70;3.97;;;8.10;33.50;;;;;;5084778;28;20440;-87
2023/04/04 09:06:04;;;;;;;2.40;2.20;;;7.90;32.30;;;;;;5067580;28;20853;-88
2023/04/04 09:08:31;;;;;;;6.63;2.73;;;8.10;33.50;;;;;;5087331;28;20478;-88
2023/04/04 09:11:01;;;;;;;3.40;2.60;;;8.50;33.30;;;;;;5097108;28;20486;-90
2023/04/04 09:13:30;;;;;;;4.13;2.43;;;8.70;32.80;;;;;;5085358;28;21207;-89
2023/04/04 09:15:58;;;;;;;3.17;1.83;;;8.80;32.30;;;;;;5087638;28;20450;-86
2023/04/04 09:18:25;;;;;;;9.00;2.33;;;9.00;32.30;;;;;;5117492;27;20463;-87
2023/04/04 09:20:52;;;;;;;8.17;2.57;;;9.00;31.00;;;;;;5089989;28;20455;-86
2023/04/04 09:23:22;;;;;;;6.30;2.60;;;9.10;31.40;;;;;;5082618;28;20475;-86
2023/04/04 09:25:51;;;;;;;5.47;2.40;;;9.40;31.50;;;;;;5065710;28;20470;-87
2023/04/04 09:28:19;;;;;;;2.97;2.10;;;9.50;30.10;;;;;;5078429;28;20479;-86
2023/04/04 09:30:50;;;;;;;2.80;2.23;;;9.80;31.10;;;;;;5067109;28;20436;-87
2023/04/04 09:33:18;;;;;;;6.73;2.27;;;9.90;30.60;;;;;;5100094;27;22367;-87
2023/04/04 09:35:46;;;;;;;3.07;2.23;;;9.80;30.10;;;;;;5095345;28;20443;-88
2023/04/04 09:38:15;;;;;;;2.10;1.90;;;9.90;29.60;;;;;;5060860;28;20443;-87
2023/04/04 09:40:42;;;;;;;2.30;2.07;;;9.80;29.90;;;;;;5067391;28;20456;-86
2023/04/04 09:43:12;;;;;;;2.73;2.27;;;10.30;29.50;;;;;;5086080;28;21118;-86
2023/04/04 09:45:41;;;;;;;2.70;2.10;;;10.40;29.30;;;;;;5057068;28;21071;-88
2023/04/04 09:48:10;;;;;;;2.33;2.00;;;10.60;29.60;;;;;;5078233;27;20508;-86
2023/04/04 09:50:45;;;;;;;4.83;2.20;;;11.00;28.50;;;;;;5084078;28;20458;-87
2023/04/04 09:53:17;;;;;;;4.90;2.50;;;11.20;28.80;;;;;;5075242;28;20450;-88
2023/04/04 09:55:50;;;;;;;4.23;2.00;;;11.30;28.30;;;;;;5064520;28;20440;-86
2023/04/04 09:58:20;;;;;;;4.40;2.30;;;11.60;27.50;;;;;;5097106;28;21196;-87
2023/04/04 10:00:48;;;;;;;2.87;2.00;;;11.70;27.40;;;;;;5088555;28;20461;-87
2023/04/04 10:03:18;;;;;;;2.57;2.20;;;11.40;27.40;;;;;;5079159;28;20443;-87
2023/04/04 10:05:45;;;;;;;5.30;2.87;;;11.40;27.70;;;;;;5067632;28;20448;-84
2023/04/04 10:08:18;;;;;;;2.20;1.97;;;11.50;27.60;;;;;;5095732;28;20464;-87
2023/04/04 10:10:47;;;;;;;4.17;1.90;;;11.70;27.50;;;;;;5054518;28;20440;-88
2023/04/04 10:13:14;;;;;;;3.63;2.50;;;11.50;27.10;;;;;;5087445;28;20481;-87
2023/04/04 10:15:44;;;;;;;3.07;2.77;;;11.60;27.90;;;;;;5115118;27;20466;-86
2023/04/04 10:18:11;;;;;;;4.00;2.73;;;11.50;27.00;;;;;;5077669;28;20456;-88
2023/04/04 10:20:40;;;;;;;3.20;1.90;;;11.30;27.80;;;;;;5097382;28;20873;-88
2023/04/04 10:23:08;;;;;;;2.67;1.90;;;11.50;27.70;;;;;;5083802;28;20454;-85
2023/04/04 10:25:36;;;;;;;4.17;2.80;;;11.80;28.00;;;;;;5067822;28;20447;-86
2023/04/04 10:28:03;;;;;;;4.27;2.53;;;12.00;27.00;;;;;;5083869;28;20483;-89
2023/04/04 10:30:31;;;;;;;4.60;2.77;;;11.90;27.80;;;;;;5061311;28;20457;-87
2023/04/04 10:33:10;;;;;;;2.37;2.17;;;11.90;27.80;;;;;;5054872;28;20543;-86
2023/04/04 10:35:40;;;;;;;3.03;2.70;;;11.80;27.90;;;;;;5083300;28;20452;-87
2023/04/04 10:38:10;;;;;;;2.43;2.23;;;12.00;27.70;;;;;;5054522;28;21126;-86
2023/04/04 10:40:38;;;;;;;5.20;2.93;;;11.60;27.90;;;;;;5098452;27;20427;-86
2023/04/04 10:43:07;;;;;;;7.43;2.73;;;11.70;29.10;;;;;;5082740;28;20447;-87
2023/04/04 10:45:37;;;;;;;3.67;2.47;;;12.30;28.20;;;;;;5050799;28;20824;-88
2023/04/04 10:48:04;;;;;;;2.53;2.30;;;12.60;26.90;;;;;;5050276;28;20471;-86
2023/04/04 10:50:33;;;;;;;4.40;2.50;;;12.60;27.60;;;;;;5060479;28;21390;-86
2023/04/04 10:53:03;;;;;;;3.40;2.00;;;12.60;26.40;;;;;;5094278;28;20530;-88
2023/04/04 10:55:32;;;;;;;4.63;2.70;;;12.90;27.20;;;;;;5087097;28;20448;-88
2023/04/04 10:58:00;;;;;;;15.30;6.00;;;12.90;26.60;;;;;;5046189;28;20459;-86
2023/04/04 11:00:27;;;;;;;4.87;3.57;;;12.60;26.20;;;;;;5091966;28;20447;-87
2023/04/04 11:02:56;;;;;;;3.20;2.90;;;12.80;26.70;;;;;;5109324;27;21165;-86
2023/04/04 11:05:25;;;;;;;3.00;2.70;;;12.40;27.00;;;;;;5090903;28;20443;-87
2023/04/04 11:07:56;;;;;;;3.83;2.93;;;12.20;27.80;;;;;;5047444;28;20503;-86
2023/04/04 11:10:27;;;;;;;3.10;2.50;;;12.30;27.30;;;;;;5062377;28;21039;-87
2023/04/04 11:12:56;;;;;;;3.47;3.17;;;12.10;27.40;;;;;;5063765;28;20502;-86
2023/04/04 11:15:25;;;;;;;3.43;3.10;;;11.80;27.80;;;;;;5073657;28;20834;-86
2023/04/04 11:17:57;;;;;;;5.10;3.90;;;11.30;27.70;;;;;;5074997;28;20533;-87
2023/04/04 11:20:33;;;;;;;4.13;3.00;;;11.10;28.40;;;;;;5091489;28;21080;-86
2023/04/04 11:23:08;;;;;;;2.73;2.53;;;10.70;28.70;;;;;;5089188;28;20476;-86
2023/04/04 11:25:39;;;;;;;9.27;4.70;;;11.10;29.10;;;;;;5089260;28;20439;-86
2023/04/04 11:28:09;;;;;;;3.27;2.47;;;11.60;28.30;;;;;;5073744;28;20447;-85
2023/04/04 11:30:43;;;;;;;3.50;2.80;;;11.50;27.10;;;;;;5106713;27;20451;-87
2023/04/04 11:33:13;;;;;;;3.43;3.17;;;11.70;27.50;;;;;;5102854;27;20463;-86
2023/04/04 11:35:41;;;;;;;3.13;2.43;;;11.90;27.30;;;;;;5046190;28;20460;-86
2023/04/04 11:38:16;;;;;;;4.00;2.83;;;12.30;27.90;;;;;;5072966;28;20442;-85
2023/04/04 11:40:55;;;;;;;3.90;2.53;;;13.00;27.60;;;;;;5093537;27;20443;-86
2023/04/04 11:43:22;;;;;;;3.87;3.03;;;13.40;26.80;;;;;;5087233;28;20478;-87
2023/04/04 11:45:50;;;;;;;2.80;2.53;;;13.20;26.90;;;;;;5058843;28;20455;-86
2023/04/04 11:48:19;;;;;;;3.20;2.67;;;13.20;27.30;;;;;;5058099;28;20524;-87
2023/04/04 11:50:50;;;;;;;3.57;3.27;;;13.60;26.90;;;;;;5088300;28;20953;-86
2023/04/04 11:53:17;;;;;;;3.20;2.57;;;13.40;26.90;;;;;;5074714;28;20874;-88
2023/04/04 11:55:49;;;;;;;4.00;2.67;;;13.30;26.40;;;;;;5076441;28;20448;-86
2023/04/04 11:58:17;;;;;;;3.13;2.40;;;13.30;27.00;;;;;;5065240;28;20972;-87
2023/04/04 12:00:45;;;;;;;5.80;3.20;;;13.40;26.70;;;;;;5094161;28;21016;-87
2023/04/04 12:03:15;;;;;;;7.20;3.30;;;12.90;26.80;;;;;;5090055;28;20444;-87
2023/04/04 12:05:43;;;;;;;2.63;2.43;;;12.50;27.80;;;;;;5069131;28;20485;-87
2023/04/04 12:08:12;;;;;;;4.47;2.80;;;12.20;27.30;;;;;;5049462;27;20534;-87
2023/04/04 12:10:40;;;;;;;7.03;2.83;;;11.90;27.40;;;;;;5068157;28;20448;-86
2023/04/04 12:13:10;;;;;;;3.37;2.90;;;11.90;27.70;;;;;;5093079;27;20552;-86
2023/04/04 12:15:37;;;;;;;4.27;2.73;;;12.10;28.30;;;;;;5095871;28;20864;-87
2023/04/04 12:18:07;;;;;;;5.23;3.27;;;12.40;28.00;;;;;;5095484;28;20812;-86
2023/04/04 12:20:37;;;;;;;4.90;3.03;;;12.90;27.50;;;;;;5070109;27;20556;-85
2023/04/04 12:23:04;;;;;;;2.87;2.57;;;13.20;26.60;;;;;;5095038;27;20455;-86
2023/04/04 12:25:32;;;;;;;3.10;2.80;;;13.80;27.10;;;;;;5092732;27;20507;-87
2023/04/04 12:28:01;;;;;;;5.40;2.73;;;14.50;26.60;;;;;;5094431;28;20447;-87
2023/04/04 12:30:30;;;;;;;4.10;2.77;;;14.90;24.20;;;;;;5112124;27;20496;-87
2023/04/04 12:32:57;;;;;;;2.97;2.60;;;14.70;25.30;;;;;;5082796;28;20533;-85
2023/04/04 12:35:24;;;;;;;2.97;2.77;;;14.50;24.90;;;;;;5090354;28;20970;-86
2023/04/04 12:37:58;;;;;;;1.87;1.67;;;14.00;25.40;;;;;;5094902;28;20477;-85
2023/04/04 12:40:28;;;;;;;3.37;2.77;;;13.70;25.50;;;;;;5092491;28;20460;-86
2023/04/04 12:42:56;;;;;;;2.97;2.67;;;13.60;26.80;;;;;;5109034;27;20543;-85
2023/04/04 12:45:23;;;;;;;3.00;2.30;;;13.80;25.30;;;;;;5077959;27;20454;-87
2023/04/04 12:47:55;;;;;;;3.70;2.30;;;13.80;26.50;;;;;;5073761;28;20452;-86
2023/04/04 12:50:25;;;;;;;3.30;3.10;;;14.00;26.20;;;;;;5088885;27;20466;-86
2023/04/04 12:52:53;;;;;;;3.50;2.70;;;14.10;26.00;;;;;;5092365;27;20453;-86
2023/04/04 12:55:22;;;;;;;3.93;2.73;;;14.50;25.80;;;;;;5068551;27;20446;-86
2023/04/04 12:57:50;;;;;;;3.80;2.80;;;14.90;25.40;;;;;;5073762;28;20454;-86
2023/04/04 13:00:20;;;;;;;3.73;2.93;;;15.10;24.70;;;;;;5083407;27;20462;-87
2023/04/04 13:02:50;;;;;;;4.43;3.57;;;14.50;25.20;;;;;;5074694;28;20983;-85